Time;durP1;ratioP1;P1;durP2;ratioP2;P2;SDS_P1;SDS_P2;PMS_P1;PMS_P2;Temp;Humidity;BMP_temperature;BMP_pressure;BME280_temperature;BME280_humidity;BME280_pressure;Samples;Min_cycle;Max_cycle;Signal;HPM_P1;HPM_P2
2021/03/08 05:01:48;;;;;;;;;;;0.00;99.90;;;;;;5429781;22;20451;-64
2021/03/08 05:04:15;;;;;;;;;;;0.00;99.90;;;;;;5061432;28;19925;-63
2021/03/08 05:06:41;;;;;;;;;;;0.10;99.90;;;;;;5061082;28;19967;-62
2021/03/08 05:09:08;;;;;;;;;;;0.10;99.90;;;;;;5061012;28;20363;-64
2021/03/08 05:11:35;;;;;;;;;;;0.10;99.90;;;;;;5061005;28;19925;-64
2021/03/08 05:14:03;;;;;;;;;;;0.10;99.90;;;;;;5060999;28;19935;-63
2021/03/08 05:16:30;;;;;;;;;;;0.00;99.90;;;;;;5060561;28;20270;-63
2021/03/08 05:18:57;;;;;;;;;;;0.00;99.90;;;;;;5060892;28;19932;-63
2021/03/08 05:21:24;;;;;;;;;;;0.00;99.90;;;;;;5060341;28;19925;-63
2021/03/08 05:23:50;;;;;;;;;;;-0.10;99.90;;;;;;5060982;28;19929;-63
2021/03/08 05:26:16;;;;;;;;;;;-0.10;99.90;;;;;;5060517;28;19925;-63
2021/03/08 05:28:43;;;;;;;;;;;-0.10;99.90;;;;;;5060949;28;19925;-63
2021/03/08 05:31:09;;;;;;;;;;;-0.20;99.90;;;;;;5061457;28;19924;-63
2021/03/08 05:33:36;;;;;;;;;;;-0.20;99.90;;;;;;5061074;28;20440;-63
2021/03/08 05:36:04;;;;;;;;;;;-0.20;99.90;;;;;;5061226;28;19925;-62
2021/03/08 05:38:31;;;;;;;;;;;-0.30;99.90;;;;;;5060487;28;19931;-63
2021/03/08 05:41:02;;;;;;;;;;;-0.30;99.90;;;;;;5060381;28;20314;-62
2021/03/08 05:43:30;;;;;;;;;;;-0.50;99.90;;;;;;5060377;28;20386;-65
2021/03/08 05:45:57;;;;;;;;;;;-0.50;99.90;;;;;;5060723;28;19925;-64
2021/03/08 05:48:50;;;;;;;;;;;-0.50;99.90;;;;;;5060857;28;19968;-63
2021/03/08 05:51:31;;;;;;;;;;;-0.50;99.90;;;;;;5060584;28;20371;-63
2021/03/08 05:54:02;;;;;;;;;;;-0.50;99.90;;;;;;5060558;28;19925;-62
2021/03/08 05:56:32;;;;;;;;;;;-0.50;99.90;;;;;;5061132;28;19928;-62
2021/03/08 05:59:19;;;;;;;;;;;-0.40;99.90;;;;;;5060915;28;19924;-63
2021/03/08 06:02:06;;;;;;;;;;;-0.40;99.90;;;;;;5055603;28;19944;-62
2021/03/08 06:04:51;;;;;;;;;;;-0.40;99.90;;;;;;5057057;28;20371;-63
2021/03/08 06:07:31;;;;;;;;;;;-0.40;99.90;;;;;;5056984;28;19986;-63
2021/03/08 06:10:03;;;;;;;;;;;-0.40;99.90;;;;;;5056619;28;19925;-63
2021/03/08 06:12:31;;;;;;;;;;;-0.50;99.90;;;;;;5057261;28;19947;-63
2021/03/08 06:14:58;;;;;;;;;;;-0.60;99.90;;;;;;5056526;28;19925;-61
2021/03/08 06:17:24;;;;;;;;;;;-0.50;99.90;;;;;;5056505;28;19932;-61
2021/03/08 06:19:50;;;;;;;;;;;-0.40;99.90;;;;;;5056493;28;19965;-62
2021/03/08 06:22:17;;;;;;;;;;;-0.40;99.90;;;;;;5056250;28;19925;-62
2021/03/08 06:24:45;;;;;;;;;;;-0.30;99.90;;;;;;5058247;28;19990;-63
2021/03/08 06:27:12;;;;;;;;;;;-0.20;99.90;;;;;;5058204;28;20306;-63
2021/03/08 06:29:39;;;;;;;;;;;-0.10;99.90;;;;;;5057862;28;19924;-63
2021/03/08 06:32:06;;;;;;;;;;;0.00;99.90;;;;;;5056523;28;19924;-62
2021/03/08 06:34:32;;;;;;;;;;;0.10;99.90;;;;;;5056042;28;19932;-61
2021/03/08 06:37:02;;;;;;;;;;;0.20;99.90;;;;;;5056401;28;20020;-62
2021/03/08 06:39:30;;;;;;;;;;;0.30;99.90;;;;;;5058690;28;19979;-63
2021/03/08 06:41:58;;;;;;;;;;;0.40;99.90;;;;;;5058146;28;19948;-61
2021/03/08 06:44:24;;;;;;;;;;;0.40;99.90;;;;;;5059926;28;19924;-63
2021/03/08 06:46:50;;;;;;;;;;;0.50;99.90;;;;;;5060685;28;19932;-63
2021/03/08 06:49:16;;;;;;;;;;;0.60;99.90;;;;;;5061136;28;20295;-63
2021/03/08 06:52:01;;;;;;;;;;;0.70;99.90;;;;;;5061639;28;19931;-64
2021/03/08 06:54:27;;;;;;;;;;;0.80;99.90;;;;;;5055771;28;19925;-65
2021/03/08 06:56:53;;;;;;;;;;;1.30;99.90;;;;;;5055714;28;19925;-65
2021/03/08 06:59:20;;;;;;;;;;;2.00;99.90;;;;;;5055720;28;19932;-65
2021/03/08 07:01:46;;;;;;;;;;;3.00;99.90;;;;;;5055090;28;19925;-64
2021/03/08 07:04:13;;;;;;;;;;;3.90;99.90;;;;;;5055007;28;19931;-65
2021/03/08 07:06:39;;;;;;;;;;;4.50;99.90;;;;;;5055144;28;19932;-64
2021/03/08 07:09:06;;;;;;;;;;;5.10;99.90;;;;;;5055729;28;19925;-64
2021/03/08 07:11:32;;;;;;;;;;;5.70;99.90;;;;;;5054940;28;20379;-66
2021/03/08 07:13:59;;;;;;;;;;;6.50;99.90;;;;;;5054710;28;20417;-64
2021/03/08 07:16:35;;;;;;;;;;;6.90;99.90;;;;;;5054940;28;19932;-64
2021/03/08 07:19:01;;;;;;;;;;;7.10;99.90;;;;;;5056424;28;19932;-64
2021/03/08 07:21:27;;;;;;;;;;;6.20;99.90;;;;;;5055993;28;19925;-65
2021/03/08 07:23:53;;;;;;;;;;;6.60;99.90;;;;;;5055415;28;20236;-64
2021/03/08 07:26:20;;;;;;;;;;;7.50;99.90;;;;;;5054995;28;19935;-63
2021/03/08 07:29:01;;;;;;;;;;;7.90;99.90;;;;;;5054898;28;19982;-62
2021/03/08 07:31:34;;;;;;;;;;;8.00;99.90;;;;;;5054306;28;20403;-63
2021/03/08 07:34:00;;;;;;;;;;;8.00;99.90;;;;;;5054636;28;19983;-64
2021/03/08 07:36:26;;;;;;;;;;;7.60;99.90;;;;;;5054111;28;20402;-64
2021/03/08 07:38:52;;;;;;;;;;;7.90;99.10;;;;;;5053967;28;19925;-64
2021/03/08 07:41:19;;;;;;;;;;;7.60;97.50;;;;;;5054384;28;19932;-63
2021/03/08 07:43:46;;;;;;;;;;;8.50;96.30;;;;;;5053820;28;20374;-63
2021/03/08 07:46:25;;;;;;;;;;;9.00;94.70;;;;;;5054166;28;19925;-64
2021/03/08 07:48:52;;;;;;;;;;;9.70;91.70;;;;;;5054026;28;19978;-63
2021/03/08 07:51:18;;;;;;;;;;;9.70;89.30;;;;;;5053868;28;20268;-63
2021/03/08 07:53:44;;;;;;;;;;;9.20;90.70;;;;;;5054560;28;19925;-63
2021/03/08 07:56:10;;;;;;;;;;;9.70;89.50;;;;;;5056801;28;19925;-62
2021/03/08 07:58:37;;;;;;;;;;;9.50;90.40;;;;;;5055489;28;19932;-65
2021/03/08 08:01:05;;;;;;;;;;;9.60;90.10;;;;;;5054766;28;19925;-65
2021/03/08 08:03:32;;;;;;;;;;;9.50;89.00;;;;;;5054741;28;19948;-63
2021/03/08 08:06:00;;;;;;;;;;;10.00;85.20;;;;;;5055005;28;19931;-65
2021/03/08 08:08:28;;;;;;;;;;;10.20;85.50;;;;;;5054749;28;19928;-63
2021/03/08 08:10:54;;;;;;;;;;;10.00;85.90;;;;;;5054563;28;19924;-63
2021/03/08 08:13:23;;;;;;;;;;;9.50;87.30;;;;;;5054277;28;19931;-63
2021/03/08 08:15:49;;;;;;;;;;;9.90;88.70;;;;;;5054817;28;19972;-64
2021/03/08 08:18:17;;;;;;;;;;;9.70;87.90;;;;;;5054621;28;19925;-65
2021/03/08 08:20:44;;;;;;;;;;;9.30;85.50;;;;;;5053787;28;19931;-64
2021/03/08 08:23:12;;;;;;;;;;;9.70;85.30;;;;;;5053674;28;19925;-64
2021/03/08 08:25:38;;;;;;;;;;;9.70;84.10;;;;;;5053644;28;20020;-65
2021/03/08 08:28:04;;;;;;;;;;;9.70;85.40;;;;;;5053159;28;19925;-64
2021/03/08 08:30:30;;;;;;;;;;;10.60;85.60;;;;;;5053481;28;19929;-65
2021/03/08 08:32:57;;;;;;;;;;;12.00;80.40;;;;;;5053277;28;19924;-65
2021/03/08 08:35:24;;;;;;;;;;;13.40;73.80;;;;;;5053354;28;19925;-65
2021/03/08 08:38:08;;;;;;;;;;;14.00;70.00;;;;;;5053517;28;19932;-64
2021/03/08 08:40:35;;;;;;;;;;;14.20;66.00;;;;;;5053148;28;19932;-63
2021/03/08 08:43:16;;;;;;;;;;;13.50;65.10;;;;;;5053605;28;19924;-64
2021/03/08 08:45:42;;;;;;;;;;;13.40;64.80;;;;;;5053200;28;19991;-62
2021/03/08 08:48:09;;;;;;;;;;;12.70;65.50;;;;;;5054119;28;19925;-61
2021/03/08 08:50:45;;;;;;;;;;;11.50;65.90;;;;;;5053858;28;19946;-63
2021/03/08 08:53:11;;;;;;;;;;;12.90;69.00;;;;;;5054132;28;19940;-61
2021/03/08 08:55:47;;;;;;;;;;;13.70;66.20;;;;;;5054799;28;19932;-63
2021/03/08 08:58:31;;;;;;;;;;;14.50;66.00;;;;;;5053644;28;20440;-62
2021/03/08 09:01:16;;;;;;;;;;;14.90;63.60;;;;;;5054259;28;19925;-63
2021/03/08 09:03:53;;;;;;;;;;;14.40;62.30;;;;;;5047025;28;20367;-62
2021/03/08 09:06:41;;;;;;;;;;;15.00;62.50;;;;;;5054232;28;19932;-62
2021/03/08 09:09:08;;;;;;;;;;;15.20;59.10;;;;;;5053477;28;19979;-63
2021/03/08 09:11:42;;;;;;;;;;;15.80;57.20;;;;;;5053145;28;19993;-63
2021/03/08 09:14:25;;;;;;;;;;;16.90;56.60;;;;;;5053046;28;20421;-63
2021/03/08 09:16:56;;;;;;;;;;;16.30;58.40;;;;;;5053274;28;19979;-63
2021/03/08 09:19:22;;;;;;;;;;;17.10;55.40;;;;;;5053387;28;19925;-62
2021/03/08 09:21:48;;;;;;;;;;;17.20;54.30;;;;;;5053540;28;19932;-63
2021/03/08 09:24:30;;;;;;;;;;;16.60;55.90;;;;;;5052865;28;19924;-62
2021/03/08 09:26:57;;;;;;;;;;;16.60;54.60;;;;;;5053477;28;19931;-62
2021/03/08 09:29:23;;;;;;;;;;;16.00;55.00;;;;;;5053030;28;19925;-62
2021/03/08 09:31:50;;;;;;;;;;;17.10;54.00;;;;;;5052978;28;19925;-63
2021/03/08 09:34:16;;;;;;;;;;;16.90;52.30;;;;;;5053147;28;19925;-63
2021/03/08 09:36:43;;;;;;;;;;;17.00;67.60;;;;;;5053555;28;19932;-62
2021/03/08 09:39:09;;;;;;;;;;;16.50;63.90;;;;;;5053744;28;19939;-62
2021/03/08 09:41:35;;;;;;;;;;;17.20;58.10;;;;;;5059403;28;19928;-62
2021/03/08 09:44:02;;;;;;;;;;;17.80;60.50;;;;;;5057151;28;19924;-62
2021/03/08 09:46:28;;;;;;;;;;;18.40;57.60;;;;;;5057327;28;19925;-62
2021/03/08 09:48:55;;;;;;;;;;;16.80;58.90;;;;;;5056744;28;19925;-63
2021/03/08 09:51:21;;;;;;;;;;;18.00;56.10;;;;;;5056709;28;19924;-63
2021/03/08 09:53:48;;;;;;;;;;;18.00;51.50;;;;;;5057256;28;19925;-64
2021/03/08 09:56:15;;;;;;;;;;;17.50;51.60;;;;;;5056396;28;19932;-64
2021/03/08 09:58:42;;;;;;;;;;;18.60;51.80;;;;;;5056224;28;19928;-63
2021/03/08 10:01:13;;;;;;;;;;;18.40;49.20;;;;;;5055992;28;20012;-64
2021/03/08 10:03:39;;;;;;;;;;;18.30;49.10;;;;;;5056352;28;19979;-64
2021/03/08 10:06:05;;;;;;;;;;;18.30;50.50;;;;;;5057196;28;19932;-64
2021/03/08 10:08:31;;;;;;;;;;;18.80;50.60;;;;;;5055922;28;19925;-63
2021/03/08 10:10:57;;;;;;;;;;;19.60;48.40;;;;;;5056286;28;19924;-63
2021/03/08 10:13:24;;;;;;;;;;;19.30;47.70;;;;;;5056555;28;19932;-63
2021/03/08 10:15:51;;;;;;;;;;;19.80;47.60;;;;;;5056072;28;19931;-64
2021/03/08 10:18:19;;;;;;;;;;;19.80;47.50;;;;;;5056225;28;19948;-63
2021/03/08 10:20:47;;;;;;;;;;;18.90;47.70;;;;;;5056406;28;20035;-64
2021/03/08 10:23:20;;;;;;;;;;;18.50;48.60;;;;;;5055785;28;19931;-64
2021/03/08 10:25:46;;;;;;;;;;;18.90;47.80;;;;;;5056765;28;19924;-64
2021/03/08 10:28:13;;;;;;;;;;;19.30;46.80;;;;;;5055886;28;19948;-63
2021/03/08 10:30:39;;;;;;;;;;;19.80;45.60;;;;;;5056064;28;19955;-63
2021/03/08 10:33:06;;;;;;;;;;;19.40;46.60;;;;;;5055930;28;19925;-63
2021/03/08 10:35:34;;;;;;;;;;;18.70;47.30;;;;;;5055770;28;19936;-63
2021/03/08 10:38:01;;;;;;;;;;;18.70;46.60;;;;;;5055916;28;19931;-63
2021/03/08 10:40:27;;;;;;;;;;;18.60;47.20;;;;;;5055716;28;19932;-62
2021/03/08 10:42:53;;;;;;;;;;;17.10;47.30;;;;;;5055763;28;19925;-63
2021/03/08 10:45:20;;;;;;;;;;;16.40;50.20;;;;;;5055626;28;19925;-63
2021/03/08 10:48:01;;;;;;;;;;;14.70;49.50;;;;;;5055597;28;19933;-62
2021/03/08 10:50:37;;;;;;;;;;;14.80;49.50;;;;;;5054767;28;19924;-63
2021/03/08 10:53:04;;;;;;;;;;;13.90;50.40;;;;;;5055984;28;19924;-62
2021/03/08 10:55:30;;;;;;;;;;;14.00;52.10;;;;;;5055199;28;20406;-63
2021/03/08 10:57:56;;;;;;;;;;;14.60;52.80;;;;;;5055387;28;19928;-63
2021/03/08 11:00:22;;;;;;;;;;;14.90;51.70;;;;;;5055258;28;19935;-63
2021/03/08 11:02:48;;;;;;;;;;;14.00;53.30;;;;;;5055241;28;19987;-63
2021/03/08 11:05:14;;;;;;;;;;;14.70;53.10;;;;;;5055033;28;20290;-63
2021/03/08 11:07:41;;;;;;;;;;;15.20;52.70;;;;;;5055202;28;20272;-63
2021/03/08 11:10:09;;;;;;;;;;;15.00;53.50;;;;;;5055568;28;19924;-62
2021/03/08 11:12:35;;;;;;;;;;;14.90;52.80;;;;;;5054887;28;20406;-63
2021/03/08 11:15:01;;;;;;;;;;;14.50;50.80;;;;;;5055027;28;19925;-63
2021/03/08 11:17:31;;;;;;;;;;;13.90;51.20;;;;;;5055014;28;19925;-62
2021/03/08 11:20:05;;;;;;;;;;;13.60;52.90;;;;;;5054932;28;20291;-62
2021/03/08 11:22:31;;;;;;;;;;;12.60;54.00;;;;;;5057158;28;19982;-63
2021/03/08 11:24:58;;;;;;;;;;;11.40;54.80;;;;;;5057691;28;19940;-62
2021/03/08 11:27:25;;;;;;;;;;;11.00;55.30;;;;;;5057511;28;19931;-62
2021/03/08 11:29:56;;;;;;;;;;;11.30;57.70;;;;;;5056536;28;20078;-62
2021/03/08 11:32:22;;;;;;;;;;;11.70;56.30;;;;;;5055268;28;19978;-61
2021/03/08 11:34:50;;;;;;;;;;;11.50;56.30;;;;;;5054863;28;19932;-61
2021/03/08 11:37:17;;;;;;;;;;;11.80;56.00;;;;;;5054882;28;19928;-62
2021/03/08 11:39:44;;;;;;;;;;;11.90;56.10;;;;;;5054582;28;20302;-62
2021/03/08 11:42:11;;;;;;;;;;;12.10;58.10;;;;;;5054478;28;19925;-63
2021/03/08 11:44:38;;;;;;;;;;;11.70;57.80;;;;;;5054794;28;19975;-62
2021/03/08 11:47:04;;;;;;;;;;;11.90;55.70;;;;;;5054272;28;19951;-63
2021/03/08 11:49:30;;;;;;;;;;;12.00;57.20;;;;;;5054480;28;19925;-61
2021/03/08 11:51:56;;;;;;;;;;;11.50;56.60;;;;;;5054338;28;19975;-63
2021/03/08 11:54:22;;;;;;;;;;;11.90;56.70;;;;;;5053851;28;19935;-63
2021/03/08 11:56:48;;;;;;;;;;;11.80;58.30;;;;;;5053795;28;20303;-62
2021/03/08 11:59:15;;;;;;;;;;;12.20;56.70;;;;;;5054128;28;20024;-62
2021/03/08 12:01:41;;;;;;;;;;;11.90;57.00;;;;;;5053166;28;19926;-62
2021/03/08 12:04:07;;;;;;;;;;;12.10;58.60;;;;;;5053336;28;19932;-62
2021/03/08 12:06:33;;;;;;;;;;;11.90;57.90;;;;;;5053844;28;19975;-62
2021/03/08 12:08:59;;;;;;;;;;;11.90;57.10;;;;;;5053970;28;19924;-62
2021/03/08 12:11:25;;;;;;;;;;;11.90;56.00;;;;;;5053553;28;19925;-62
2021/03/08 12:13:51;;;;;;;;;;;11.90;57.30;;;;;;5053717;28;19929;-62
2021/03/08 12:16:18;;;;;;;;;;;11.50;57.50;;;;;;5053733;28;19928;-62
2021/03/08 12:18:44;;;;;;;;;;;11.10;59.10;;;;;;5054656;28;19925;-62
2021/03/08 12:21:10;;;;;;;;;;;11.20;59.40;;;;;;5053897;28;19928;-62
2021/03/08 12:23:36;;;;;;;;;;;11.30;56.70;;;;;;5053624;28;19925;-62
2021/03/08 12:26:03;;;;;;;;;;;11.50;57.30;;;;;;5053533;28;19932;-62
2021/03/08 12:28:29;;;;;;;;;;;11.60;57.30;;;;;;5057347;28;19929;-62
2021/03/08 12:30:55;;;;;;;;;;;11.30;57.40;;;;;;5070034;28;20293;-62
2021/03/08 12:33:22;;;;;;;;;;;11.30;56.50;;;;;;5071374;28;20386;-62
2021/03/08 12:35:48;;;;;;;;;;;11.30;58.90;;;;;;5072433;28;19932;-62
2021/03/08 12:38:14;;;;;;;;;;;11.60;65.40;;;;;;5070928;28;20363;-62
2021/03/08 12:40:40;;;;;;;;;;;11.70;60.00;;;;;;5055291;28;19925;-62
2021/03/08 12:43:07;;;;;;;;;;;12.20;78.00;;;;;;5054854;28;19974;-63
2021/03/08 12:45:33;;;;;;;;;;;12.50;70.40;;;;;;5054664;28;19924;-61
2021/03/08 12:47:59;;;;;;;;;;;12.30;64.00;;;;;;5054463;28;19925;-62
2021/03/08 12:50:26;;;;;;;;;;;12.10;63.20;;;;;;5054880;28;19929;-63
2021/03/08 12:52:52;;;;;;;;;;;12.10;58.80;;;;;;5058599;28;19979;-63
2021/03/08 12:55:19;;;;;;;;;;;12.20;57.90;;;;;;5058932;28;19924;-62
2021/03/08 12:57:45;;;;;;;;;;;12.30;60.60;;;;;;5054325;28;19924;-62
2021/03/08 13:00:12;;;;;;;;;;;12.30;56.10;;;;;;5054025;28;19925;-63
2021/03/08 13:02:38;;;;;;;;;;;12.50;56.50;;;;;;5054140;28;19939;-62
2021/03/08 13:05:04;;;;;;;;;;;12.30;57.30;;;;;;5053804;28;19925;-62
2021/03/08 13:07:31;;;;;;;;;;;11.90;55.90;;;;;;5053908;28;19924;-63
2021/03/08 13:09:57;;;;;;;;;;;11.90;56.40;;;;;;5056235;28;20345;-62
2021/03/08 13:12:23;;;;;;;;;;;11.90;55.40;;;;;;5059465;28;20294;-62
2021/03/08 13:14:49;;;;;;;;;;;12.10;56.90;;;;;;5062987;28;19932;-63
2021/03/08 13:17:16;;;;;;;;;;;11.70;55.00;;;;;;5075010;22;20295;-67
2021/03/08 13:19:42;;;;;;;;;;;11.70;57.80;;;;;;5063277;28;19932;-68
2021/03/08 13:22:08;;;;;;;;;;;11.90;59.00;;;;;;5062761;28;19939;-67
2021/03/08 13:24:35;;;;;;;;;;;11.90;56.70;;;;;;5063657;28;20367;-67
2021/03/08 13:27:06;;;;;;;;;;;11.70;54.60;;;;;;5066960;28;19931;-68
2021/03/08 13:29:32;;;;;;;;;;;12.00;54.20;;;;;;5069785;28;19924;-67
2021/03/08 13:31:58;;;;;;;;;;;12.10;53.70;;;;;;5063674;28;19993;-67
2021/03/08 13:34:24;;;;;;;;;;;12.00;56.60;;;;;;5061442;28;19935;-67
2021/03/08 13:36:50;;;;;;;;;;;11.80;55.80;;;;;;5061952;28;19928;-69
2021/03/08 13:39:16;;;;;;;;;;;11.90;56.10;;;;;;5062692;28;19924;-67
2021/03/08 13:41:43;;;;;;;;;;;11.70;53.70;;;;;;5063455;28;19944;-67
2021/03/08 13:44:09;;;;;;;;;;;11.30;54.30;;;;;;5064173;28;19924;-67
2021/03/08 13:46:36;;;;;;;;;;;11.70;54.90;;;;;;5061417;28;19925;-68
2021/03/08 13:49:02;;;;;;;;;;;11.70;57.20;;;;;;5063490;28;19936;-67
2021/03/08 13:51:28;;;;;;;;;;;11.70;54.10;;;;;;5062119;28;19931;-68
2021/03/08 13:53:55;;;;;;;;;;;11.70;52.10;;;;;;5061588;28;19928;-67
2021/03/08 13:56:21;;;;;;;;;;;11.60;50.20;;;;;;5062547;28;19947;-68
2021/03/08 13:58:47;;;;;;;;;;;11.70;53.30;;;;;;5062292;28;19932;-67
2021/03/08 14:01:15;;;;;;;;;;;11.50;52.00;;;;;;5063637;28;19925;-67
2021/03/08 14:03:42;;;;;;;;;;;11.60;50.90;;;;;;5063855;28;19932;-68
2021/03/08 14:06:10;;;;;;;;;;;11.70;50.80;;;;;;5065513;28;20018;-67
2021/03/08 14:08:36;;;;;;;;;;;11.80;52.80;;;;;;5061259;28;19924;-67
2021/03/08 14:11:02;;;;;;;;;;;11.70;51.30;;;;;;5062256;28;19925;-67
2021/03/08 14:13:28;;;;;;;;;;;11.90;50.60;;;;;;5063761;28;19932;-68
2021/03/08 14:15:55;;;;;;;;;;;12.10;51.70;;;;;;5063324;28;20311;-67
2021/03/08 14:18:21;;;;;;;;;;;12.10;51.10;;;;;;5072518;28;19925;-67
2021/03/08 14:20:47;;;;;;;;;;;12.00;50.60;;;;;;5061366;28;19971;-68
2021/03/08 14:23:14;;;;;;;;;;;11.90;52.50;;;;;;5061694;28;19924;-68
2021/03/08 14:25:40;;;;;;;;;;;12.00;52.80;;;;;;5061756;28;19925;-68
2021/03/08 14:28:06;;;;;;;;;;;12.10;52.00;;;;;;5061830;28;19991;-68
2021/03/08 14:30:32;;;;;;;;;;;11.70;51.80;;;;;;5062472;28;19931;-68
2021/03/08 14:32:59;;;;;;;;;;;11.60;52.70;;;;;;5061444;28;19925;-68
2021/03/08 14:35:25;;;;;;;;;;;11.60;50.20;;;;;;5060119;28;19925;-68
2021/03/08 14:37:51;;;;;;;;;;;11.30;50.30;;;;;;5058465;28;19931;-66
2021/03/08 14:40:18;;;;;;;;;;;11.40;63.80;;;;;;5059412;28;19925;-67
2021/03/08 14:42:44;;;;;;;;;;;11.40;61.40;;;;;;5061654;28;20390;-67
2021/03/08 14:45:11;;;;;;;;;;;11.50;58.00;;;;;;5070094;28;19932;-67
2021/03/08 14:47:37;;;;;;;;;;;11.40;56.60;;;;;;5071261;28;19932;-67
2021/03/08 14:50:04;;;;;;;;;;;11.30;51.50;;;;;;5071816;28;19932;-67
2021/03/08 14:52:30;;;;;;;;;;;11.40;53.70;;;;;;5070388;28;19925;-67
2021/03/08 14:54:57;;;;;;;;;;;11.40;55.10;;;;;;5067773;28;19969;-67
2021/03/08 14:57:23;;;;;;;;;;;11.30;53.10;;;;;;5059303;28;19925;-68
2021/03/08 14:59:49;;;;;;;;;;;11.00;51.60;;;;;;5056914;28;19947;-68
2021/03/08 15:02:15;;;;;;;;;;;11.00;53.70;;;;;;5056624;28;19979;-66
2021/03/08 15:04:41;;;;;;;;;;;10.80;53.90;;;;;;5055780;28;19925;-66
2021/03/08 15:07:08;;;;;;;;;;;10.70;54.30;;;;;;5056061;28;19925;-66
2021/03/08 15:09:34;;;;;;;;;;;10.30;54.60;;;;;;5056361;28;19931;-66
2021/03/08 15:12:00;;;;;;;;;;;10.40;55.70;;;;;;5056519;28;19925;-67
2021/03/08 15:14:26;;;;;;;;;;;10.50;56.10;;;;;;5056014;28;19932;-67
2021/03/08 15:16:52;;;;;;;;;;;10.20;55.10;;;;;;5012003;28;1253732;-66
2021/03/08 15:19:19;;;;;;;;;;;9.90;57.70;;;;;;5057291;28;19924;-66
2021/03/08 15:21:45;;;;;;;;;;;9.90;57.30;;;;;;5056580;28;19996;-66
2021/03/08 15:24:12;;;;;;;;;;;10.10;57.40;;;;;;5056140;28;19924;-66
2021/03/08 15:26:38;;;;;;;;;;;10.30;56.80;;;;;;5056102;28;19924;-66
2021/03/08 15:29:04;;;;;;;;;;;10.40;55.60;;;;;;5055856;28;19928;-67
2021/03/08 15:31:32;;;;;;;;;;;10.50;56.80;;;;;;5056259;28;19970;-65
2021/03/08 15:33:58;;;;;;;;;;;10.60;56.50;;;;;;5055995;28;19925;-65
2021/03/08 15:36:24;;;;;;;;;;;10.60;55.90;;;;;;5056340;28;19947;-65
2021/03/08 15:38:50;;;;;;;;;;;10.40;55.50;;;;;;5056471;28;19932;-67
2021/03/08 15:41:18;;;;;;;;;;;10.50;55.40;;;;;;5055831;28;19944;-66
2021/03/08 15:43:44;;;;;;;;;;;10.60;55.00;;;;;;5057138;28;20251;-66
2021/03/08 15:46:10;;;;;;;;;;;10.40;55.80;;;;;;5055606;28;19932;-65
2021/03/08 15:48:36;;;;;;;;;;;10.20;55.60;;;;;;5056449;28;19978;-65
2021/03/08 15:51:03;;;;;;;;;;;10.00;55.90;;;;;;5068060;28;19925;-68
2021/03/08 15:53:29;;;;;;;;;;;10.00;56.30;;;;;;5078370;28;19913;-67
2021/03/08 15:55:55;;;;;;;;;;;10.00;55.50;;;;;;5060714;28;19935;-66
2021/03/08 15:58:22;;;;;;;;;;;10.00;55.90;;;;;;5061637;28;20038;-66
2021/03/08 16:00:48;;;;;;;;;;;10.00;56.50;;;;;;5056255;28;19931;-67
2021/03/08 16:03:14;;;;;;;;;;;10.00;56.90;;;;;;5055277;28;19978;-67
2021/03/08 16:05:40;;;;;;;;;;;9.70;56.90;;;;;;5055417;28;19970;-67
2021/03/08 16:08:06;;;;;;;;;;;9.60;57.10;;;;;;5054923;28;19925;-66
2021/03/08 16:10:32;;;;;;;;;;;9.50;57.80;;;;;;5055101;28;19971;-66
2021/03/08 16:12:59;;;;;;;;;;;9.50;57.50;;;;;;5055278;28;19928;-65
2021/03/08 16:15:26;;;;;;;;;;;9.40;58.20;;;;;;5055829;28;19951;-67
2021/03/08 16:17:52;;;;;;;;;;;9.40;58.40;;;;;;5054945;28;19931;-66
2021/03/08 16:20:18;;;;;;;;;;;9.50;58.10;;;;;;5055053;28;20334;-66
2021/03/08 16:22:44;;;;;;;;;;;9.40;57.80;;;;;;5055284;28;19925;-66
2021/03/08 16:25:11;;;;;;;;;;;9.40;59.20;;;;;;5054968;28;19925;-66
2021/03/08 16:27:37;;;;;;;;;;;9.30;58.50;;;;;;5054435;28;19932;-66
2021/03/08 16:30:04;;;;;;;;;;;9.30;59.90;;;;;;5054832;28;19925;-65
2021/03/08 16:32:31;;;;;;;;;;;9.10;59.60;;;;;;5055724;28;19932;-66
2021/03/08 16:34:57;;;;;;;;;;;9.20;60.00;;;;;;5054952;28;19932;-67
2021/03/08 16:37:23;;;;;;;;;;;9.20;87.50;;;;;;5054625;28;19925;-66
2021/03/08 16:39:49;;;;;;;;;;;9.10;65.90;;;;;;5054771;28;19925;-66
2021/03/08 16:42:15;;;;;;;;;;;9.10;64.50;;;;;;5054661;28;19978;-66
2021/03/08 16:44:42;;;;;;;;;;;8.90;65.40;;;;;;5055756;28;19932;-66
2021/03/08 16:47:08;;;;;;;;;;;8.80;64.90;;;;;;5054764;28;20391;-65
2021/03/08 16:49:35;;;;;;;;;;;8.70;65.50;;;;;;5055265;28;19955;-66
2021/03/08 16:52:01;;;;;;;;;;;8.80;66.40;;;;;;5055470;28;20380;-66
2021/03/08 16:54:27;;;;;;;;;;;8.60;66.20;;;;;;5056258;28;19924;-66
2021/03/08 16:56:53;;;;;;;;;;;8.60;67.00;;;;;;5055849;28;19925;-67
2021/03/08 16:59:19;;;;;;;;;;;8.60;67.10;;;;;;5055273;28;19925;-66
2021/03/08 17:01:45;;;;;;;;;;;8.40;67.60;;;;;;5055278;28;19928;-66
2021/03/08 17:04:11;;;;;;;;;;;8.30;68.90;;;;;;5055265;28;19925;-66
2021/03/08 17:06:38;;;;;;;;;;;8.20;69.30;;;;;;5055585;28;19925;-66
2021/03/08 17:09:04;;;;;;;;;;;8.20;69.10;;;;;;5054796;28;19932;-67
2021/03/08 17:11:30;;;;;;;;;;;8.20;68.80;;;;;;5054814;28;19925;-65
2021/03/08 17:13:56;;;;;;;;;;;8.30;84.60;;;;;;5054826;28;19925;-65
2021/03/08 17:16:23;;;;;;;;;;;8.60;85.40;;;;;;5054888;28;19925;-65
2021/03/08 17:18:49;;;;;;;;;;;8.40;76.80;;;;;;5054775;28;19925;-65
2021/03/08 17:21:15;;;;;;;;;;;8.40;73.10;;;;;;5054732;28;19929;-66
2021/03/08 17:23:42;;;;;;;;;;;8.30;72.80;;;;;;5054618;28;19931;-67
2021/03/08 17:26:08;;;;;;;;;;;8.20;72.60;;;;;;5055407;28;19925;-66
2021/03/08 17:28:34;;;;;;;;;;;8.20;73.00;;;;;;5068236;28;19925;-67
2021/03/08 17:31:00;;;;;;;;;;;8.00;72.50;;;;;;5056340;28;19932;-65
2021/03/08 17:33:27;;;;;;;;;;;8.00;74.40;;;;;;5054625;28;19924;-67
2021/03/08 17:35:53;;;;;;;;;;;7.90;73.20;;;;;;5053888;28;20356;-66
2021/03/08 17:38:19;;;;;;;;;;;7.80;74.20;;;;;;5054579;28;19924;-67
2021/03/08 17:40:46;;;;;;;;;;;7.70;74.60;;;;;;5054233;28;19996;-67
2021/03/08 17:43:12;;;;;;;;;;;7.60;74.80;;;;;;5054469;28;19925;-67
2021/03/08 17:45:39;;;;;;;;;;;7.50;75.70;;;;;;5054622;28;20271;-67
2021/03/08 17:48:05;;;;;;;;;;;7.30;76.10;;;;;;5054118;28;19925;-66
2021/03/08 17:50:31;;;;;;;;;;;7.20;77.80;;;;;;5054230;28;19925;-66
2021/03/08 17:52:57;;;;;;;;;;;7.00;79.90;;;;;;5054707;28;19925;-66
2021/03/08 17:55:23;;;;;;;;;;;6.80;82.90;;;;;;5055283;28;19974;-66
2021/03/08 17:57:50;;;;;;;;;;;6.70;85.80;;;;;;5053999;28;19925;-67
2021/03/08 18:00:17;;;;;;;;;;;6.60;87.00;;;;;;5054245;28;19948;-67
2021/03/08 18:02:43;;;;;;;;;;;6.60;87.80;;;;;;5057833;28;19932;-66
2021/03/08 18:05:11;;;;;;;;;;;6.50;89.50;;;;;;5058556;28;19925;-67
2021/03/08 18:07:37;;;;;;;;;;;6.50;90.20;;;;;;5060547;28;20379;-67
2021/03/08 18:10:04;;;;;;;;;;;6.50;90.80;;;;;;5059412;28;19971;-66
2021/03/08 18:12:30;;;;;;;;;;;6.50;91.00;;;;;;5058441;28;19925;-67
2021/03/08 18:14:57;;;;;;;;;;;6.50;91.20;;;;;;5057901;28;19925;-67
2021/03/08 18:17:23;;;;;;;;;;;6.30;92.00;;;;;;5057000;28;20418;-67
2021/03/08 18:19:49;;;;;;;;;;;6.10;92.70;;;;;;5058101;28;19925;-66
2021/03/08 18:22:15;;;;;;;;;;;6.10;93.40;;;;;;5057555;28;19928;-66
2021/03/08 18:24:41;;;;;;;;;;;6.00;94.00;;;;;;5057244;28;20399;-67
2021/03/08 18:27:08;;;;;;;;;;;6.10;94.40;;;;;;5057344;28;19931;-66
2021/03/08 18:29:34;;;;;;;;;;;6.00;94.70;;;;;;5057277;28;19925;-67
2021/03/08 18:32:01;;;;;;;;;;;6.00;95.20;;;;;;5057366;28;19931;-66
2021/03/08 18:34:27;;;;;;;;;;;6.00;95.40;;;;;;5058210;28;20311;-66
2021/03/08 18:36:53;;;;;;;;;;;5.90;95.50;;;;;;5057476;28;19925;-66
2021/03/08 18:39:19;;;;;;;;;;;5.80;96.10;;;;;;5057387;28;19932;-67
2021/03/08 18:41:45;;;;;;;;;;;5.80;96.30;;;;;;5057300;28;19929;-66
2021/03/08 18:44:11;;;;;;;;;;;5.80;96.40;;;;;;5057056;28;19925;-67
2021/03/08 18:46:37;;;;;;;;;;;5.80;96.70;;;;;;5056939;28;19931;-67
2021/03/08 18:49:04;;;;;;;;;;;5.80;97.10;;;;;;5056883;28;19925;-67
2021/03/08 18:51:30;;;;;;;;;;;5.70;97.40;;;;;;5056939;28;19932;-68
2021/03/08 18:53:56;;;;;;;;;;;5.60;98.30;;;;;;5056960;28;19932;-67
2021/03/08 18:56:22;;;;;;;;;;;5.50;98.80;;;;;;5056854;28;20383;-67
2021/03/08 18:58:48;;;;;;;;;;;5.50;99.10;;;;;;5057273;28;19925;-67
2021/03/08 19:01:16;;;;;;;;;;;5.40;99.60;;;;;;5057365;28;20379;-67
2021/03/08 19:03:42;;;;;;;;;;;5.50;99.90;;;;;;5072091;28;19929;-67
2021/03/08 19:06:09;;;;;;;;;;;5.40;99.90;;;;;;5057586;28;19947;-67
2021/03/08 19:08:35;;;;;;;;;;;5.50;99.90;;;;;;5057229;28;19929;-67
2021/03/08 19:11:01;;;;;;;;;;;5.50;99.90;;;;;;5056431;28;19932;-66
2021/03/08 19:13:28;;;;;;;;;;;5.50;99.90;;;;;;5056554;28;19924;-67
2021/03/08 19:15:54;;;;;;;;;;;5.40;99.90;;;;;;5056932;28;19924;-67
2021/03/08 19:18:20;;;;;;;;;;;5.40;99.90;;;;;;5056938;28;20292;-67
2021/03/08 19:20:46;;;;;;;;;;;5.30;99.90;;;;;;5057164;28;20008;-66
2021/03/08 19:23:13;;;;;;;;;;;5.30;99.90;;;;;;5056716;28;19929;-68